createdAt,value
2023-02-22T00:00:42.086Z,1963.00
2023-02-22T00:01:42.106Z,1973.00
2023-02-22T00:02:42.025Z,1974.00
2023-02-22T00:03:42.005Z,1970.00
2023-02-22T00:04:41.983Z,1964.00
2023-02-22T00:05:41.943Z,1957.00
2023-02-22T00:06:41.901Z,1961.00
2023-02-22T00:07:41.880Z,1956.00
2023-02-22T00:08:41.844Z,1954.00
2023-02-22T00:09:41.810Z,1955.00
2023-02-22T00:10:41.790Z,1930.00
2023-02-22T00:11:41.752Z,1941.00
2023-02-22T00:12:41.714Z,1934.00
2023-02-22T00:13:41.686Z,1928.00
2023-02-22T00:14:41.652Z,1929.00
2023-02-22T00:15:41.636Z,1949.00
2023-02-22T00:16:41.648Z,1931.00
2023-02-22T00:17:41.576Z,1932.00
2023-02-22T00:18:41.547Z,1927.00
2023-02-22T00:19:41.512Z,1937.00
2023-02-22T00:20:41.483Z,1934.00
2023-02-22T00:21:41.449Z,1925.00
2023-02-22T00:22:41.411Z,1926.00
2023-02-22T00:23:41.383Z,1925.00
2023-02-22T00:24:41.356Z,1932.00
2023-02-22T00:25:41.327Z,1941.00
2023-02-22T00:26:41.310Z,1941.00
2023-02-22T00:27:41.276Z,1943.00
2023-02-22T00:28:41.234Z,1941.00
2023-02-22T00:29:41.215Z,1934.00
2023-02-22T00:30:41.294Z,1939.00
2023-02-22T00:31:41.218Z,1940.00
2023-02-22T00:32:41.137Z,1933.00
2023-02-22T00:33:41.101Z,1953.00
2023-02-22T00:34:41.091Z,1938.00
2023-02-22T00:35:41.060Z,1930.00
2023-02-22T00:36:41.032Z,1918.00
2023-02-22T00:37:41.005Z,1919.00
2023-02-22T00:38:40.986Z,1922.00
2023-02-22T00:39:40.957Z,1924.00
2023-02-22T00:40:40.933Z,1921.00
2023-02-22T00:41:40.952Z,1927.00
2023-02-22T00:42:40.880Z,1915.00
2023-02-22T00:43:40.855Z,1927.00
2023-02-22T00:44:40.826Z,1914.00
2023-02-22T00:45:40.907Z,1919.00
2023-02-22T00:46:40.788Z,1908.00
2023-02-22T00:47:40.750Z,1904.00
2023-02-22T00:48:40.733Z,1922.00
2023-02-22T00:49:40.716Z,1893.00
2023-02-22T00:50:40.681Z,1898.00
2023-02-22T00:51:40.672Z,1908.00
2023-02-22T00:52:40.643Z,1897.00
2023-02-22T00:53:40.617Z,1914.00
2023-02-22T00:54:40.611Z,1900.00
2023-02-22T00:55:40.570Z,1888.00
2023-02-22T00:56:40.543Z,1906.00
2023-02-22T00:57:40.528Z,1890.00
2023-02-22T00:58:40.491Z,1897.00
2023-02-22T00:59:40.478Z,1899.00
2023-02-22T01:00:40.445Z,1893.00
2023-02-22T01:01:40.433Z,1897.00
2023-02-22T01:02:40.484Z,1903.00
2023-02-22T01:03:40.380Z,1876.00
2023-02-22T01:04:40.339Z,1887.00
2023-02-22T01:05:40.340Z,1882.00
2023-02-22T01:06:40.293Z,1889.00
2023-02-22T01:07:40.272Z,1889.00
2023-02-22T01:08:40.238Z,1889.00
2023-02-22T01:09:40.221Z,1890.00
2023-02-22T01:10:40.179Z,1891.00
2023-02-22T01:11:40.157Z,1875.00
2023-02-22T01:12:40.126Z,1880.00
2023-02-22T01:13:40.092Z,1884.00
2023-02-22T01:14:40.072Z,1876.00
2023-02-22T01:15:40.027Z,1860.00
2023-02-22T01:16:40.025Z,1876.00
2023-02-22T01:17:39.974Z,1860.00
2023-02-22T01:18:39.957Z,1874.00
2023-02-22T01:19:39.912Z,1864.00
2023-02-22T01:20:39.882Z,1863.00
2023-02-22T01:21:39.864Z,1865.00
2023-02-22T01:22:39.831Z,1858.00
2023-02-22T01:23:39.813Z,1868.00
2023-02-22T01:24:39.776Z,1848.00
2023-02-22T01:25:39.748Z,1858.00
2023-02-22T01:26:39.730Z,1854.00
2023-02-22T01:27:39.701Z,1852.00
2023-02-22T01:28:39.664Z,1864.00
2023-02-22T01:29:39.644Z,1842.00
2023-02-22T01:30:39.720Z,1855.00
2023-02-22T01:31:39.626Z,1851.00
2023-02-22T01:32:39.562Z,1851.00
2023-02-22T01:33:39.534Z,1853.00
2023-02-22T01:34:39.520Z,1850.00
2023-02-22T01:35:39.487Z,1860.00
2023-02-22T01:36:39.459Z,1852.00
2023-02-22T01:37:39.442Z,1850.00
2023-02-22T01:38:39.436Z,1849.00
2023-02-22T01:39:39.395Z,1852.00
2023-02-22T01:40:39.376Z,1835.00
2023-02-22T01:41:39.345Z,1812.00
2023-02-22T01:42:39.324Z,1806.00
2023-02-22T01:43:39.292Z,1807.00
2023-02-22T01:44:39.262Z,1830.00
2023-02-22T01:45:39.244Z,1832.00
2023-02-22T01:46:39.200Z,1828.00
2023-02-22T01:47:39.180Z,1806.00
2023-02-22T01:48:39.148Z,1790.00
2023-02-22T01:49:39.120Z,1769.00
2023-02-22T01:50:39.080Z,1795.00
2023-02-22T01:51:39.062Z,1803.00
2023-02-22T01:52:39.034Z,1801.00
2023-02-22T01:53:39.011Z,1790.00
2023-02-22T01:54:38.977Z,1786.00
2023-02-22T01:55:38.978Z,1768.00
2023-02-22T01:56:38.917Z,1794.00
2023-02-22T01:57:38.906Z,1781.00
2023-02-22T01:58:38.865Z,1800.00
2023-02-22T01:59:38.846Z,1797.00
2023-02-22T02:00:38.816Z,1784.00
2023-02-22T02:01:38.792Z,1788.00
2023-02-22T02:02:38.791Z,1795.00
2023-02-22T02:03:38.791Z,1804.00
2023-02-22T02:04:38.759Z,1784.00
2023-02-22T02:05:38.681Z,1779.00
2023-02-22T02:06:38.679Z,1781.00
2023-02-22T02:07:39.509Z,1770.00
2023-02-22T02:08:38.620Z,1777.00
2023-02-22T02:09:38.599Z,1774.00
2023-02-22T02:10:38.578Z,1772.00
2023-02-22T02:11:38.556Z,1745.00
2023-02-22T02:12:38.544Z,1769.00
2023-02-22T02:13:38.523Z,1751.00
2023-02-22T02:14:38.494Z,1756.00
2023-02-22T02:15:38.475Z,1772.00
2023-02-22T02:16:38.483Z,1780.00
2023-02-22T02:17:38.436Z,1767.00
2023-02-22T02:18:38.416Z,1771.00
2023-02-22T02:19:38.389Z,1772.00
2023-02-22T02:20:38.372Z,1781.00
2023-02-22T02:21:38.371Z,1761.00
2023-02-22T02:22:38.345Z,1775.00
2023-02-22T02:23:38.327Z,1774.00
2023-02-22T02:24:38.286Z,1779.00
2023-02-22T02:25:38.275Z,1760.00
2023-02-22T02:26:38.257Z,1769.00
2023-02-22T02:27:38.234Z,1758.00
2023-02-22T02:28:38.219Z,1759.00
2023-02-22T02:29:38.243Z,1767.00
2023-02-22T02:30:38.260Z,1774.00
2023-02-22T02:31:38.235Z,1768.00
2023-02-22T02:32:38.134Z,1762.00
2023-02-22T02:33:38.110Z,1735.00
2023-02-22T02:34:38.072Z,1743.00
2023-02-22T02:35:38.051Z,1723.00
2023-02-22T02:36:38.031Z,1740.00
2023-02-22T02:37:38.021Z,1756.00
2023-02-22T02:38:38.031Z,1753.00
2023-02-22T02:39:37.978Z,1733.00
2023-02-22T02:40:37.942Z,1728.00
2023-02-22T02:41:37.913Z,1743.00
2023-02-22T02:42:37.888Z,1757.00
2023-02-22T02:43:37.868Z,1747.00
2023-02-22T02:44:37.841Z,1741.00
2023-02-22T02:45:37.824Z,1751.00
2023-02-22T02:46:37.797Z,1727.00
2023-02-22T02:47:37.790Z,1707.00
2023-02-22T02:48:37.769Z,1741.00
2023-02-22T02:49:37.725Z,1747.00
2023-02-22T02:50:37.691Z,1746.00
2023-02-22T02:51:37.659Z,1737.00
2023-02-22T02:52:37.625Z,1737.00
2023-02-22T02:53:37.622Z,1739.00
2023-02-22T02:54:37.589Z,1715.00
2023-02-22T02:55:37.555Z,1726.00
2023-02-22T02:56:37.522Z,1750.00
2023-02-22T02:57:37.503Z,1746.00
2023-02-22T02:58:37.465Z,1758.00
2023-02-22T02:59:37.445Z,1720.00
2023-02-22T03:00:37.430Z,1654.00
2023-02-22T03:01:37.398Z,1670.00
2023-02-22T03:02:37.356Z,1706.00
2023-02-22T03:03:37.340Z,1719.00
2023-02-22T03:04:37.326Z,1683.00
2023-02-22T03:05:37.277Z,1595.00
2023-02-22T03:06:37.252Z,1629.00
2023-02-22T03:07:37.241Z,1630.00
2023-02-22T03:08:37.209Z,1610.00
2023-02-22T03:09:37.172Z,1637.00
2023-02-22T03:10:37.146Z,1691.00
2023-02-22T03:11:37.118Z,1684.00
2023-02-22T03:12:37.099Z,1631.00
2023-02-22T03:13:37.065Z,1647.00
2023-02-22T03:14:37.041Z,1648.00
2023-02-22T03:15:37.008Z,1653.00
2023-02-22T03:16:37.044Z,1608.00
2023-02-22T03:17:36.954Z,1642.00
2023-02-22T03:18:36.928Z,1651.00
2023-02-22T03:19:36.898Z,1650.00
2023-02-22T03:20:36.871Z,1641.00
2023-02-22T03:21:36.840Z,1616.00
2023-02-22T03:22:36.821Z,1574.00
2023-02-22T03:23:36.786Z,1577.00
2023-02-22T03:24:36.769Z,1554.00
2023-02-22T03:25:36.736Z,1612.00
2023-02-22T03:26:36.704Z,1626.00
2023-02-22T03:27:36.690Z,1624.00
2023-02-22T03:28:36.661Z,1625.00
2023-02-22T03:29:36.669Z,1629.00
2023-02-22T03:30:36.688Z,1615.00
2023-02-22T03:31:36.561Z,1620.00
2023-02-22T03:32:36.533Z,1612.00
2023-02-22T03:33:36.511Z,1585.00
2023-02-22T03:34:36.476Z,1552.00
2023-02-22T03:35:36.438Z,1592.00
2023-02-22T03:36:36.407Z,1608.00
2023-02-22T03:37:36.375Z,1617.00
2023-02-22T03:38:36.349Z,1605.00
2023-02-22T03:39:36.320Z,1603.00
2023-02-22T03:40:36.288Z,1594.00
2023-02-22T03:41:36.265Z,1568.00
2023-02-22T03:42:36.233Z,1559.00
2023-02-22T03:43:36.213Z,1552.00
2023-02-22T03:44:36.172Z,1484.00
2023-02-22T03:45:36.138Z,1460.00
2023-02-22T03:46:36.148Z,1517.00
2023-02-22T03:47:36.080Z,1531.00
2023-02-22T03:48:36.051Z,1485.00
2023-02-22T03:49:36.090Z,1511.00
2023-02-22T03:50:35.998Z,1456.00
2023-02-22T03:51:35.991Z,1424.00
2023-02-22T03:52:35.942Z,1373.00
2023-02-22T03:53:35.913Z,1310.00
2023-02-22T03:54:35.884Z,1334.00
2023-02-22T03:55:35.845Z,1371.00
2023-02-22T03:56:35.986Z,1407.00
2023-02-22T03:57:35.794Z,1446.00
2023-02-22T03:58:35.770Z,1384.00
2023-02-22T03:59:35.771Z,1357.00
2023-02-22T04:00:35.716Z,1346.00
2023-02-22T04:01:35.689Z,1184.00
2023-02-22T04:02:35.670Z,1195.00
2023-02-22T04:03:35.661Z,1196.00
2023-02-22T04:04:35.640Z,1196.00
2023-02-22T04:05:35.597Z,1215.00
2023-02-22T04:06:35.564Z,1243.00
2023-02-22T04:07:35.537Z,1271.00
2023-02-22T04:08:35.512Z,1264.00
2023-02-22T04:09:35.496Z,1262.00
2023-02-22T04:10:35.465Z,1276.00
2023-02-22T04:11:35.431Z,1169.00
2023-02-22T04:12:35.403Z,1068.00
2023-02-22T04:13:35.372Z,1072.00
2023-02-22T04:14:35.381Z,1082.00
2023-02-22T04:15:35.338Z,1115.00
2023-02-22T04:16:35.309Z,1132.00
2023-02-22T04:17:35.278Z,1160.00
2023-02-22T04:18:35.263Z,1191.00
2023-02-22T04:19:35.233Z,1176.00
2023-02-22T04:20:35.209Z,1185.00
2023-02-22T04:21:35.185Z,1153.00
2023-02-22T04:22:35.156Z,1072.00
2023-02-22T04:23:35.141Z,1033.00
2023-02-22T04:24:35.107Z,1015.00
2023-02-22T04:25:35.090Z,1023.00
2023-02-22T04:26:35.085Z,1115.00
2023-02-22T04:27:35.051Z,1091.00
2023-02-22T04:28:35.039Z,1051.00
2023-02-22T04:29:35.009Z,1074.00
2023-02-22T04:30:35.062Z,1075.00
2023-02-22T04:31:35.011Z,1081.00
2023-02-22T04:32:34.927Z,1075.00
2023-02-22T04:33:34.898Z,1034.00
2023-02-22T04:34:34.892Z,987.00
2023-02-22T04:35:35.643Z,957.00
2023-02-22T04:36:34.832Z,1019.00
2023-02-22T04:37:34.832Z,1073.00
2023-02-22T04:38:34.788Z,1067.00
2023-02-22T04:39:34.797Z,1067.00
2023-02-22T04:40:34.757Z,1086.00
2023-02-22T04:41:34.724Z,1115.00
2023-02-22T04:42:34.706Z,1041.00
2023-02-22T04:43:34.690Z,1006.00
2023-02-22T04:44:34.658Z,1007.00
2023-02-22T04:45:34.630Z,981.00
2023-02-22T04:46:34.701Z,998.00
2023-02-22T04:47:34.589Z,1011.00
2023-02-22T04:48:34.568Z,1037.00
2023-02-22T04:49:34.536Z,1056.00
2023-02-22T04:50:34.515Z,1024.00
2023-02-22T04:51:34.496Z,1054.00
2023-02-22T04:52:34.494Z,989.00
2023-02-22T04:53:34.442Z,955.00
2023-02-22T04:54:34.431Z,968.00
2023-02-22T04:55:34.403Z,978.00
2023-02-22T04:56:34.377Z,987.00
2023-02-22T04:57:34.349Z,1017.00
2023-02-22T04:58:34.340Z,1023.00
2023-02-22T04:59:34.317Z,1021.00
2023-02-22T05:00:34.287Z,1021.00
2023-02-22T05:01:34.256Z,1052.00
2023-02-22T05:02:34.255Z,1052.00
2023-02-22T05:03:34.200Z,1055.00
2023-02-22T05:04:34.223Z,1068.00
2023-02-22T05:05:34.160Z,1088.00
2023-02-22T05:06:34.149Z,1125.00
2023-02-22T05:07:34.116Z,1096.00
2023-02-22T05:08:34.097Z,1077.00
2023-02-22T05:09:34.084Z,1081.00
2023-02-22T05:10:34.059Z,1083.00
2023-02-22T05:11:34.056Z,1097.00
2023-02-22T05:12:34.021Z,1114.00
2023-02-22T05:13:34.001Z,1073.00
2023-02-22T05:14:33.990Z,1073.00
2023-02-22T05:15:34.007Z,1073.00
2023-02-22T05:16:33.963Z,1113.00
2023-02-22T05:17:33.920Z,1101.00
2023-02-22T05:18:33.905Z,1107.00
2023-02-22T05:19:33.874Z,1079.00
2023-02-22T05:20:33.882Z,1063.00
2023-02-22T05:21:33.846Z,1085.00
2023-02-22T05:22:33.829Z,1048.00
2023-02-22T05:23:33.793Z,1050.00
2023-02-22T05:24:33.773Z,1057.00
2023-02-22T05:25:33.755Z,1063.00
2023-02-22T05:26:33.736Z,1075.00
2023-02-22T05:27:33.702Z,1095.00
2023-02-22T05:28:33.680Z,1079.00
2023-02-22T05:29:33.654Z,1107.00
2023-02-22T05:30:33.738Z,1068.00
2023-02-22T05:31:33.714Z,1060.00
2023-02-22T05:32:33.607Z,1081.00
2023-02-22T05:33:33.574Z,1121.00
2023-02-22T05:34:33.559Z,1129.00
2023-02-22T05:35:33.525Z,1145.00
2023-02-22T05:36:33.518Z,1134.00
2023-02-22T05:37:33.472Z,1109.00
2023-02-22T05:38:33.455Z,1093.00
2023-02-22T05:39:33.422Z,1089.00
2023-02-22T05:40:33.410Z,1138.00
2023-02-22T05:41:33.384Z,1102.00
2023-02-22T05:42:33.369Z,1087.00
2023-02-22T05:43:33.332Z,1096.00
2023-02-22T05:44:33.320Z,1102.00
2023-02-22T05:45:33.291Z,1105.00
2023-02-22T05:46:33.314Z,1126.00
2023-02-22T05:47:33.251Z,1100.00
2023-02-22T05:48:33.237Z,1090.00
2023-02-22T05:49:33.203Z,1093.00
2023-02-22T05:50:33.325Z,1080.00
2023-02-22T05:51:33.180Z,1073.00
2023-02-22T05:52:33.145Z,1109.00
2023-02-22T05:53:33.125Z,1109.00
2023-02-22T05:54:33.105Z,1094.00
2023-02-22T05:55:33.098Z,1112.00
2023-02-22T05:56:33.091Z,1126.00
2023-02-22T05:57:33.051Z,1134.00
2023-02-22T05:58:33.044Z,1101.00
2023-02-22T05:59:33.012Z,1079.00
2023-02-22T06:00:33.009Z,1086.00
2023-02-22T06:01:32.974Z,1101.00
2023-02-22T06:02:32.960Z,1143.00
2023-02-22T06:03:32.931Z,1130.00
2023-02-22T06:04:32.913Z,1127.00
2023-02-22T06:05:32.944Z,1099.00
2023-02-22T06:06:32.865Z,1082.00
2023-02-22T06:07:32.846Z,1103.00
2023-02-22T06:08:32.839Z,1055.00
2023-02-22T06:09:32.837Z,1103.00
2023-02-22T06:10:32.783Z,1048.00
2023-02-22T06:11:32.754Z,1061.00
2023-02-22T06:12:32.730Z,1083.00
2023-02-22T06:13:32.705Z,1053.00
2023-02-22T06:14:32.689Z,1099.00
2023-02-22T06:15:32.670Z,1090.00
2023-02-22T06:16:32.654Z,1081.00
2023-02-22T06:17:32.622Z,1073.00
2023-02-22T06:18:32.601Z,1053.00
2023-02-22T06:19:32.579Z,1094.00
2023-02-22T06:20:32.568Z,1108.00
2023-02-22T06:21:32.546Z,1104.00
2023-02-22T06:22:32.524Z,1085.00
2023-02-22T06:23:32.499Z,1091.00
2023-02-22T06:24:32.473Z,1108.00
2023-02-22T06:25:32.494Z,1097.00
2023-02-22T06:26:32.440Z,1131.00
2023-02-22T06:27:32.417Z,1097.00
2023-02-22T06:28:32.422Z,1097.00
2023-02-22T06:29:32.386Z,1098.00
2023-02-22T06:30:32.410Z,1112.00
2023-02-22T06:31:32.395Z,1100.00
2023-02-22T06:32:32.379Z,1113.00
2023-02-22T06:33:32.308Z,1129.00
2023-02-22T06:34:32.320Z,1192.00
2023-02-22T06:35:32.275Z,1274.00
2023-02-22T06:36:32.275Z,1380.00
2023-02-22T06:37:32.228Z,1436.00
2023-02-22T06:38:32.218Z,1493.00
2023-02-22T06:39:32.187Z,1537.00
2023-02-22T06:40:32.151Z,1581.00
2023-02-22T06:41:32.168Z,1634.00
2023-02-22T06:42:32.152Z,1675.00
2023-02-22T06:43:32.106Z,1721.00
2023-02-22T06:44:32.077Z,1774.00
2023-02-22T06:45:32.046Z,1838.00
2023-02-22T06:46:32.013Z,1879.00
2023-02-22T06:47:31.980Z,1949.00
2023-02-22T06:48:31.954Z,2001.00
2023-02-22T06:49:31.924Z,2025.00
2023-02-22T06:50:32.914Z,2071.00
2023-02-22T06:51:32.697Z,2081.00
2023-02-22T06:52:31.889Z,2121.00
2023-02-22T06:53:31.812Z,2321.00
2023-02-22T06:54:31.781Z,2387.00
2023-02-22T06:55:31.796Z,2430.00
2023-02-22T06:56:31.716Z,2460.00
2023-02-22T06:57:31.682Z,2490.00
2023-02-22T06:58:31.770Z,2523.00
2023-02-22T06:59:31.645Z,2533.00
2023-02-22T07:00:31.588Z,2522.00
2023-02-22T07:01:31.561Z,2539.00
2023-02-22T07:02:31.535Z,2541.00
2023-02-22T07:03:31.599Z,2548.00
2023-02-22T07:04:31.523Z,2556.00
2023-02-22T07:05:31.495Z,2569.00
2023-02-22T07:06:31.414Z,2612.00
2023-02-22T07:07:31.380Z,2638.00
2023-02-22T07:08:31.400Z,2635.00
2023-02-22T07:09:31.313Z,2672.00
2023-02-22T07:10:31.280Z,2664.00
2023-02-22T07:11:31.258Z,2683.00
2023-02-22T07:12:31.217Z,2702.00
2023-02-22T07:13:31.200Z,2713.00
2023-02-22T07:14:31.166Z,2726.00
2023-02-22T07:15:31.125Z,2740.00
2023-02-22T07:16:31.124Z,2732.00
2023-02-22T07:17:31.055Z,2748.00
2023-02-22T07:18:31.089Z,2751.00
2023-02-22T07:19:31.048Z,2779.00
2023-02-22T07:20:30.966Z,2783.00
2023-02-22T07:21:31.111Z,2798.00
2023-02-22T07:22:30.917Z,2779.00
2023-02-22T07:23:30.882Z,2794.00
2023-02-22T07:24:30.874Z,2789.00
2023-02-22T07:25:30.825Z,2813.00
2023-02-22T07:26:30.812Z,2814.00
2023-02-22T07:27:30.777Z,2829.00
2023-02-22T07:28:30.732Z,2840.00
2023-02-22T07:29:30.727Z,2857.00
2023-02-22T07:30:30.833Z,2864.00
2023-02-22T07:31:30.652Z,2908.00
2023-02-22T07:32:30.713Z,2913.00
2023-02-22T07:33:30.582Z,2926.00
2023-02-22T07:34:30.567Z,2920.00
2023-02-22T07:35:30.546Z,2931.00
2023-02-22T07:36:30.482Z,2957.00
2023-02-22T07:37:30.442Z,2955.00
2023-02-22T07:38:30.414Z,2956.00
2023-02-22T07:39:30.374Z,2960.00
2023-02-22T07:40:30.347Z,2960.00
2023-02-22T07:41:30.334Z,2971.00
2023-02-22T07:42:30.295Z,3003.00
2023-02-22T07:43:30.295Z,3056.00
2023-02-22T07:44:30.230Z,3063.00
2023-02-22T07:45:30.249Z,3062.00
2023-02-22T07:46:30.134Z,3089.00
2023-02-22T07:47:30.097Z,3096.00
2023-02-22T07:48:30.080Z,3097.00
2023-02-22T07:49:30.069Z,3101.00
2023-02-22T07:50:29.996Z,3116.00
2023-02-22T07:51:29.964Z,3118.00
2023-02-22T07:52:29.932Z,3121.00
2023-02-22T07:53:29.942Z,3127.00
2023-02-22T07:54:29.876Z,3137.00
2023-02-22T07:55:29.835Z,3129.00
2023-02-22T07:56:29.789Z,3118.00
2023-02-22T07:57:29.763Z,3119.00
2023-02-22T07:58:29.728Z,3125.00
2023-02-22T07:59:29.677Z,3131.00
2023-02-22T08:00:29.643Z,3134.00
2023-02-22T08:01:29.617Z,3154.00
2023-02-22T08:02:29.629Z,3118.00
2023-02-22T08:03:29.557Z,3118.00
2023-02-22T08:04:29.446Z,3122.00
2023-02-22T08:05:29.418Z,3129.00
2023-02-22T08:06:29.365Z,3118.00
2023-02-22T08:07:29.376Z,3121.00
2023-02-22T08:08:29.272Z,3130.00
2023-02-22T08:09:29.238Z,3131.00
2023-02-22T08:10:29.199Z,3143.00
2023-02-22T08:11:29.145Z,3120.00
2023-02-22T08:12:29.107Z,3124.00
2023-02-22T08:13:29.050Z,3128.00
2023-02-22T08:14:29.046Z,3144.00
2023-02-22T08:15:28.968Z,3169.00
2023-02-22T08:16:28.998Z,3160.00
2023-02-22T08:17:28.885Z,3177.00
2023-02-22T08:18:28.845Z,3138.00
2023-02-22T08:19:28.858Z,3173.00
2023-02-22T08:20:28.756Z,3175.00
2023-02-22T08:21:28.722Z,3159.00
2023-02-22T08:22:28.690Z,3196.00
2023-02-22T08:23:28.650Z,3189.00
2023-02-22T08:24:28.586Z,3167.00
2023-02-22T08:25:28.565Z,3147.00
2023-02-22T08:26:28.524Z,3168.00
2023-02-22T08:27:28.463Z,3150.00
2023-02-22T08:28:28.426Z,3187.00
2023-02-22T08:29:28.471Z,3172.00
2023-02-22T08:30:28.405Z,3166.00
2023-02-22T08:31:28.329Z,3172.00
2023-02-22T08:32:28.406Z,3175.00
2023-02-22T08:33:28.225Z,3180.00
2023-02-22T08:34:28.194Z,3185.00
2023-02-22T08:35:28.156Z,3184.00
2023-02-22T08:36:28.128Z,3208.00
2023-02-22T08:37:28.064Z,3252.00
2023-02-22T08:38:28.015Z,3225.00
2023-02-22T08:39:27.984Z,3261.00
2023-02-22T08:40:27.967Z,3206.00
2023-02-22T08:41:27.870Z,3207.00
2023-02-22T08:42:27.831Z,3211.00
2023-02-22T08:43:27.793Z,3213.00
2023-02-22T08:44:27.764Z,3221.00
2023-02-22T08:45:27.731Z,3229.00
2023-02-22T08:46:27.693Z,3253.00
2023-02-22T08:47:27.662Z,3299.00
2023-02-22T08:48:27.592Z,3300.00
2023-02-22T08:49:27.529Z,3313.00
2023-02-22T08:50:27.492Z,3291.00
2023-02-22T08:51:27.892Z,3304.00
2023-02-22T08:52:27.393Z,3311.00
2023-02-22T08:53:27.362Z,3292.00
2023-02-22T08:54:27.310Z,3297.00
2023-02-22T08:55:27.261Z,3285.00
2023-02-22T08:56:27.222Z,3261.00
2023-02-22T08:57:27.181Z,3261.00
2023-02-22T08:58:27.154Z,3215.00
2023-02-22T08:59:27.094Z,3180.00
2023-02-22T09:00:27.039Z,3140.00
2023-02-22T09:01:32.935Z,3132.00
2023-02-22T09:02:27.947Z,3128.00
2023-02-22T09:03:27.076Z,3057.00
2023-02-22T09:04:26.859Z,3024.00
2023-02-22T09:05:26.827Z,2978.00
2023-02-22T09:06:26.775Z,2951.00
2023-02-22T09:07:26.734Z,2902.00
2023-02-22T09:08:26.714Z,2879.00
2023-02-22T09:09:26.655Z,2814.00
2023-02-22T09:10:26.623Z,2775.00
2023-02-22T09:11:26.567Z,2763.00
2023-02-22T09:12:26.569Z,2711.00
2023-02-22T09:13:26.466Z,2686.00
2023-02-22T09:14:26.435Z,2658.00
2023-02-22T09:15:26.396Z,2640.00
2023-02-22T09:16:26.398Z,2619.00
2023-02-22T09:17:26.375Z,2546.00
2023-02-22T09:18:30.556Z,2555.00
2023-02-22T09:19:27.200Z,2556.00
2023-02-22T09:20:26.209Z,2534.00
2023-02-22T09:21:26.117Z,2533.00
2023-02-22T09:22:26.073Z,2499.00
2023-02-22T09:23:26.150Z,2475.00
2023-02-22T09:24:26.002Z,2460.00
2023-02-22T09:25:25.954Z,2413.00
2023-02-22T09:26:25.910Z,2411.00
2023-02-22T09:27:25.876Z,2415.00
2023-02-22T09:28:27.294Z,2365.00
2023-02-22T09:29:25.779Z,2345.00
2023-02-22T09:30:25.780Z,2324.00
2023-02-22T09:31:25.810Z,2302.00
2023-02-22T09:32:25.829Z,2272.00
2023-02-22T09:33:25.638Z,2274.00
2023-02-22T09:34:25.545Z,2228.00
2023-02-22T09:35:25.512Z,2254.00
2023-02-22T09:36:26.279Z,2255.00
2023-02-22T09:37:25.426Z,2247.00
2023-02-22T09:38:25.383Z,2219.00
2023-02-22T09:39:25.458Z,2227.00
2023-02-22T09:40:25.342Z,2188.00
2023-02-22T09:41:25.269Z,2161.00
2023-02-22T09:42:25.216Z,2163.00
2023-02-22T09:43:25.184Z,2142.00
2023-02-22T09:44:26.034Z,2112.00
2023-02-22T09:45:25.122Z,2109.00
2023-02-22T09:46:25.060Z,2097.00
2023-02-22T09:47:25.037Z,2066.00
2023-02-22T09:48:24.971Z,2070.00
2023-02-22T09:49:24.974Z,2020.00
2023-02-22T09:50:24.902Z,2038.00
2023-02-22T09:51:24.871Z,1999.00
2023-02-22T09:52:24.827Z,1965.00
2023-02-22T09:53:26.394Z,2007.00
2023-02-22T10:29:23.454Z,1665.00
2023-02-22T10:30:25.286Z,1663.00
2023-02-22T10:31:23.452Z,1663.00
2023-02-22T10:32:23.411Z,1655.00
2023-02-22T10:33:23.294Z,1658.00
2023-02-22T10:34:23.258Z,1656.00
2023-02-22T10:35:24.186Z,1649.00
2023-02-22T10:36:23.208Z,1726.00
2023-02-22T10:37:23.201Z,1786.00
2023-02-22T10:38:23.154Z,1755.00
2023-02-22T10:39:23.100Z,1756.00
2023-02-22T10:40:23.104Z,1735.00
2023-02-22T10:41:23.044Z,1734.00
2023-02-22T10:42:22.995Z,1737.00
2023-02-22T10:43:22.944Z,1685.00
2023-02-22T10:44:22.899Z,1669.00
2023-02-22T10:45:22.865Z,1667.00
2023-02-22T10:46:22.873Z,1698.00
2023-02-22T10:47:22.813Z,1725.00
2023-02-22T10:48:22.746Z,1767.00
2023-02-22T10:49:22.719Z,1799.00
2023-02-22T10:50:22.669Z,1835.00
2023-02-22T10:51:22.675Z,1882.00
2023-02-22T10:52:22.603Z,1921.00
2023-02-22T10:53:22.585Z,1948.00
2023-02-22T10:54:22.512Z,1952.00
2023-02-22T10:55:22.474Z,1972.00
2023-02-22T10:56:22.478Z,2017.00
2023-02-22T10:57:22.424Z,2124.00
2023-02-22T10:58:22.349Z,2234.00
2023-02-22T10:59:23.492Z,2253.00
2023-02-22T11:00:22.308Z,2375.00
2023-02-22T11:01:22.358Z,2405.00
2023-02-22T11:02:22.239Z,2470.00
2023-02-22T11:03:22.191Z,2554.00
2023-02-22T11:04:22.147Z,2573.00
2023-02-22T11:05:22.131Z,2635.00
2023-02-22T11:06:22.144Z,2649.00
2023-02-22T11:07:22.042Z,2677.00
2023-02-22T11:08:22.086Z,2725.00
2023-02-22T11:09:21.983Z,2782.00
2023-02-22T11:10:21.927Z,2821.00
2023-02-22T11:11:21.881Z,2879.00
2023-02-22T11:12:21.846Z,2895.00
2023-02-22T11:13:21.822Z,2932.00
2023-02-22T11:14:21.760Z,2934.00
2023-02-22T11:15:21.719Z,2940.00
2023-02-22T11:16:21.708Z,2952.00
2023-02-22T11:17:21.643Z,2987.00
2023-02-22T11:18:21.653Z,2995.00
2023-02-22T11:19:21.557Z,3006.00
2023-02-22T11:20:21.508Z,3036.00
2023-02-22T11:21:21.462Z,3047.00
2023-02-22T11:22:21.446Z,3048.00
2023-02-22T11:23:21.410Z,3052.00
2023-02-22T11:24:21.357Z,3071.00
2023-02-22T11:25:21.327Z,3105.00
2023-02-22T11:26:21.316Z,3174.00
2023-02-22T11:27:21.255Z,3179.00
2023-02-22T11:28:21.220Z,3212.00
2023-02-22T11:29:21.165Z,3220.00
2023-02-22T11:30:21.216Z,3224.00
2023-02-22T11:31:21.361Z,3268.00
2023-02-22T11:32:21.180Z,3256.00
2023-02-22T11:33:21.035Z,3276.00
2023-02-22T11:34:20.994Z,3278.00
2023-02-22T11:35:20.967Z,3276.00
2023-02-22T11:36:20.946Z,3276.00
2023-02-22T11:37:20.864Z,3313.00
2023-02-22T11:38:20.866Z,3305.00
2023-02-22T11:39:20.800Z,3313.00
2023-02-22T11:40:20.760Z,3294.00
2023-02-22T11:41:20.882Z,3329.00
2023-02-22T11:42:20.668Z,3282.00
2023-02-22T11:43:20.672Z,3243.00
2023-02-22T11:44:20.592Z,3253.00
2023-02-22T11:45:20.600Z,3216.00
2023-02-22T11:46:20.556Z,3182.00
2023-02-22T11:47:20.478Z,3126.00
2023-02-22T11:48:20.428Z,3074.00
2023-02-22T11:49:20.384Z,3050.00
2023-02-22T11:50:20.345Z,2989.00
2023-02-22T11:51:20.563Z,2953.00
2023-02-22T11:52:20.275Z,2914.00
2023-02-22T11:53:20.227Z,2887.00
2023-02-22T11:54:20.181Z,2893.00
2023-02-22T11:55:26.741Z,2888.00
2023-02-22T11:56:35.699Z,2889.00
2023-02-22T11:57:21.065Z,2890.00
2023-02-22T11:58:20.035Z,2902.00
2023-02-22T11:59:20.066Z,2911.00
2023-02-22T12:00:20.014Z,2913.00
2023-02-22T12:01:19.967Z,2863.00
2023-02-22T12:02:19.892Z,2861.00
2023-02-22T12:03:19.931Z,2846.00
2023-02-22T12:04:19.874Z,2825.00
2023-02-22T12:05:19.815Z,2830.00
2023-02-22T12:06:19.920Z,2776.00
2023-02-22T12:07:19.692Z,2725.00
2023-02-22T12:08:20.299Z,2759.00
2023-02-22T12:09:19.624Z,2760.00
2023-02-22T12:10:19.610Z,2781.00
2023-02-22T12:11:19.563Z,2774.00
2023-02-22T12:12:19.518Z,2715.00
2023-02-22T12:13:19.527Z,2644.00
2023-02-22T12:14:19.454Z,2670.00
2023-02-22T12:15:19.394Z,2598.00
2023-02-22T12:16:19.785Z,2602.00
2023-02-22T12:17:19.324Z,2561.00
2023-02-22T12:18:19.324Z,2571.00
2023-02-22T12:19:19.257Z,2573.00
2023-02-22T12:20:19.234Z,2561.00
2023-02-22T12:21:19.188Z,2541.00
2023-02-22T12:22:19.151Z,2532.00
2023-02-22T12:23:19.113Z,2517.00
2023-02-22T12:24:19.091Z,2496.00
2023-02-22T12:25:19.030Z,2497.00
2023-02-22T12:26:19.143Z,2497.00
2023-02-22T12:27:19.003Z,2489.00
2023-02-22T12:28:24.664Z,2474.00
2023-02-22T12:29:20.001Z,2496.00
2023-02-22T12:30:18.902Z,2470.00
2023-02-22T12:31:19.176Z,2460.00
2023-02-22T12:32:18.845Z,2445.00
2023-02-22T12:33:18.725Z,2427.00
2023-02-22T12:34:18.751Z,2402.00
2023-02-22T12:35:18.660Z,2383.00
2023-02-22T12:36:18.627Z,2377.00
2023-02-22T12:37:18.624Z,2370.00
2023-02-22T12:38:18.563Z,2351.00
2023-02-22T12:39:18.533Z,2330.00
2023-02-22T12:40:18.518Z,2299.00
2023-02-22T12:41:18.831Z,2296.00